Time;durP1;ratioP1;P1;durP2;ratioP2;P2;SDS_P1;SDS_P2;PMS_P1;PMS_P2;Temp;Humidity;BMP_temperature;BMP_pressure;BME280_temperature;BME280_humidity;BME280_pressure;Samples;Min_cycle;Max_cycle;Signal;HPM_P1;HPM_P2
2021/12/26 00:00:29;;;;;;;8.10;4.28;;;;;;;-2.27;58.54;99885.63;1788941;80;20961;-64
2021/12/26 00:02:55;;;;;;;8.25;4.35;;;;;;;-2.28;58.31;99881.80;1755520;80;21533;-64
2021/12/26 00:05:22;;;;;;;7.60;4.15;;;;;;;-2.28;58.52;99881.80;1770977;80;20962;-65
2021/12/26 00:07:49;;;;;;;6.65;4.47;;;;;;;-2.28;58.57;99882.65;1754314;81;21471;-63
2021/12/26 00:10:17;;;;;;;7.80;4.50;;;;;;;-2.31;58.65;99881.47;1783962;78;21008;-63
2021/12/26 00:12:45;;;;;;;7.95;4.50;;;;;;;-2.34;58.65;99877.67;1744116;80;21074;-63
2021/12/26 00:15:12;;;;;;;7.35;4.40;;;;;;;-2.34;58.69;99875.09;1782334;80;21812;-63
2021/12/26 00:17:40;;;;;;;9.05;4.72;;;;;;;-2.35;58.80;99877.28;1771342;80;21364;-64
2021/12/26 00:20:08;;;;;;;8.48;4.47;;;;;;;-2.35;58.87;99873.41;1758343;81;21505;-64
2021/12/26 00:22:34;;;;;;;8.15;4.05;;;;;;;-2.37;59.02;99874.75;1757928;80;21029;-64
2021/12/26 00:25:04;;;;;;;7.72;4.08;;;;;;;-2.39;58.93;99879.59;1755005;81;20940;-63
2021/12/26 00:27:32;;;;;;;8.25;4.90;;;;;;;-2.44;58.97;99875.85;1783735;80;21827;-65
2021/12/26 00:29:58;;;;;;;8.18;4.50;;;;;;;-2.44;59.15;99875.85;1729191;81;21012;-62
2021/12/26 00:32:25;;;;;;;6.67;4.00;;;;;;;-2.45;59.14;99870.73;1759422;80;21063;-62
2021/12/26 00:34:51;;;;;;;7.72;4.10;;;;;;;-2.46;58.95;99868.60;1761847;80;21098;-64
2021/12/26 00:37:18;;;;;;;7.90;4.10;;;;;;;-2.45;58.96;99874.62;1752656;80;21421;-64
2021/12/26 00:39:44;;;;;;;8.10;4.22;;;;;;;-2.46;58.97;99878.11;1761752;80;22392;-63
2021/12/26 00:42:11;;;;;;;9.23;4.00;;;;;;;-2.48;59.01;99876.02;1756256;80;21021;-63
2021/12/26 00:44:40;;;;;;;6.08;3.98;;;;;;;-2.49;59.17;99884.23;1768173;80;21005;-64
2021/12/26 07:10:01;;;;;;;32.42;14.98;;;;;;;-5.45;66.38;100188.47;1763893;80;21064;-65
2021/12/26 07:12:29;;;;;;;31.77;14.47;;;;;;;-5.39;66.50;100181.94;1803230;77;21844;-66
2021/12/26 07:14:57;;;;;;;28.25;11.73;;;;;;;-5.33;66.54;100184.83;1813406;78;21529;-66
2021/12/26 07:17:24;;;;;;;20.23;10.58;;;;;;;-5.26;66.59;100179.55;1813754;79;21039;-66
2021/12/26 07:19:52;;;;;;;24.05;11.10;;;;;;;-5.20;66.56;100181.17;1807186;79;21064;-67
2021/12/26 07:22:26;;;;;;;22.15;10.48;;;;;;;-5.15;66.55;100177.21;1795896;78;21016;-67
2021/12/26 07:24:54;;;;;;;26.68;13.40;;;;;;;-5.07;66.51;100184.36;1793478;79;21818;-67
2021/12/26 07:30:51;;;;;;;13.85;7.60;;;;;;;-4.97;66.40;100188.02;1797668;78;20945;-68
2021/12/26 07:33:20;;;;;;;15.83;7.37;;;;;;;-4.84;66.24;100183.91;1793899;78;20995;-68
2021/12/26 07:35:48;;;;;;;12.75;6.37;;;;;;;-4.78;65.97;100183.80;1800493;79;21438;-66
2021/12/26 07:38:22;;;;;;;14.05;6.60;;;;;;;-4.72;65.71;100179.83;1815062;78;22529;-66
2021/12/26 07:40:48;;;;;;;12.95;6.78;;;;;;;-4.67;65.51;100179.27;1809937;78;21035;-69
2021/12/26 07:43:17;;;;;;;13.03;7.35;;;;;;;-4.62;65.51;100182.63;1809115;78;21445;-68
2021/12/26 07:45:57;;;;;;;12.58;7.50;;;;;;;-4.52;65.48;100185.86;1797476;79;21023;-66
2021/12/26 07:48:23;;;;;;;15.50;8.40;;;;;;;-4.45;65.17;100189.98;1796957;77;21008;-66
2021/12/26 07:50:51;;;;;;;13.83;7.42;;;;;;;-4.42;64.97;100184.78;1789794;79;21795;-67
2021/12/26 07:53:36;;;;;;;11.35;5.90;;;;;;;-4.37;64.93;100185.52;1780487;79;20981;-68
2021/12/26 07:56:21;;;;;;;11.57;5.80;;;;;;;-4.30;64.69;100184.95;1789318;79;20978;-68
2021/12/26 07:58:49;;;;;;;9.83;5.72;;;;;;;-4.22;64.53;100187.77;1709818;80;21012;-66
2021/12/26 08:01:36;;;;;;;10.08;5.20;;;;;;;-4.17;64.28;100186.36;1775517;80;20984;-67
2021/12/26 08:04:05;;;;;;;10.60;5.30;;;;;;;-4.11;64.18;100187.08;1778183;79;21727;-66
2021/12/26 08:06:52;;;;;;;12.35;6.17;;;;;;;-4.06;64.04;100180.08;1752498;80;21044;-66
2021/12/26 08:09:19;;;;;;;7.25;4.17;;;;;;;-3.94;63.87;100181.99;1808912;79;21009;-67
2021/12/26 08:11:46;;;;;;;12.00;6.55;;;;;;;-3.87;63.32;100186.09;1811006;78;21020;-67
2021/12/26 08:14:13;;;;;;;13.22;6.90;;;;;;;-3.83;63.29;100183.88;1811364;78;21000;-66
2021/12/26 08:16:40;;;;;;;10.48;5.85;;;;;;;-3.77;63.28;100174.67;1800218;79;21818;-66
2021/12/26 08:19:07;;;;;;;11.55;6.67;;;;;;;-3.71;62.97;100169.37;1810429;79;21463;-66
2021/12/26 08:21:34;;;;;;;11.95;6.75;;;;;;;-3.64;62.94;100161.05;1805085;79;21028;-67
2021/12/26 08:24:03;;;;;;;14.43;6.53;;;;;;;-3.58;62.74;100159.14;1802915;79;21016;-65
2021/12/26 08:26:32;;;;;;;11.48;5.97;;;;;;;-3.51;62.52;100161.98;1805355;79;21023;-67
2021/12/26 08:28:58;;;;;;;11.03;6.55;;;;;;;-3.43;62.46;100157.92;1805242;77;22785;-67
2021/12/26 08:31:24;;;;;;;9.45;5.40;;;;;;;-3.36;62.09;100158.62;1815497;79;21363;-68
2021/12/26 08:33:51;;;;;;;8.28;4.70;;;;;;;-3.32;62.08;100159.77;1796967;79;21506;-66
2021/12/26 08:36:19;;;;;;;8.65;4.45;;;;;;;-3.26;61.69;100158.34;1783442;80;21031;-65
2021/12/26 08:38:47;;;;;;;8.15;4.60;;;;;;;-3.18;61.60;100164.59;1761273;80;21022;-65
2021/12/26 08:41:13;;;;;;;8.63;4.37;;;;;;;-3.12;61.22;100158.40;1791909;79;21788;-65
2021/12/26 08:43:43;;;;;;;9.00;4.75;;;;;;;-3.08;61.01;100163.91;1797553;79;21384;-69
2021/12/26 08:46:11;;;;;;;8.40;3.85;;;;;;;-3.05;60.60;100163.37;1802450;79;20976;-65
2021/12/26 08:48:38;;;;;;;8.35;4.62;;;;;;;-3.02;60.39;100159.84;1802335;79;21460;-65
2021/12/26 08:51:04;;;;;;;7.75;4.10;;;;;;;-3.00;60.23;100156.77;1832851;77;21011;-67
2021/12/26 08:53:31;;;;;;;8.43;4.40;;;;;;;-2.94;60.12;100156.16;1777059;79;21795;-66
2021/12/26 08:55:59;;;;;;;7.87;4.10;;;;;;;-2.86;60.03;100144.77;1776873;79;21498;-66
2021/12/26 08:58:26;;;;;;;7.90;3.55;;;;;;;-2.79;59.71;100145.02;1813106;79;21041;-65
2021/12/26 09:00:55;;;;;;;6.12;3.35;;;;;;;-2.75;59.46;100140.98;1812905;78;20948;-66
2021/12/26 09:03:21;;;;;;;7.30;3.67;;;;;;;-2.71;59.25;100140.44;1810035;79;21422;-66
2021/12/26 09:05:48;;;;;;;7.37;3.60;;;;;;;-2.65;59.16;100137.69;1783903;79;21822;-66
2021/12/26 09:08:14;;;;;;;7.80;3.90;;;;;;;-2.60;58.99;100135.83;1783258;80;20929;-66
2021/12/26 09:10:44;;;;;;;6.75;3.90;;;;;;;-2.56;58.94;100133.55;1789258;79;21035;-67
2021/12/26 09:13:11;;;;;;;8.85;3.70;;;;;;;-2.52;58.90;100126.08;1777266;79;21139;-66
2021/12/26 09:15:38;;;;;;;6.50;3.30;;;;;;;-2.43;58.59;100126.25;1776538;80;20982;-66
2021/12/26 09:18:04;;;;;;;6.90;3.60;;;;;;;-2.37;58.58;100116.58;1814612;79;21790;-65
2021/12/26 09:20:32;;;;;;;8.00;2.98;;;;;;;-2.33;57.83;100114.28;1812704;79;20876;-67
2021/12/26 09:22:59;;;;;;;10.10;3.98;;;;;;;-2.25;57.41;100111.47;1803742;77;21047;-67
2021/12/26 09:25:25;;;;;;;5.30;3.10;;;;;;;-2.20;57.34;100116.52;1815884;79;20968;-66
2021/12/26 09:27:53;;;;;;;8.83;4.28;;;;;;;-2.11;57.66;100121.41;1815550;79;20920;-66
2021/12/26 09:30:20;;;;;;;7.47;3.72;;;;;;;-2.02;57.46;100122.41;1814637;79;21831;-67
2021/12/26 09:32:46;;;;;;;5.47;3.08;;;;;;;-1.97;56.96;100115.77;1805216;79;21059;-66
2021/12/26 09:35:14;;;;;;;8.03;3.35;;;;;;;-1.92;56.87;100119.92;1814031;79;20985;-66
2021/12/26 09:37:40;;;;;;;6.10;3.05;;;;;;;-1.84;56.46;100112.73;1814064;78;20977;-67
2021/12/26 09:40:11;;;;;;;5.22;2.85;;;;;;;-1.79;56.22;100121.20;1807241;79;21459;-66
2021/12/26 09:42:38;;;;;;;6.42;3.37;;;;;;;-1.75;55.62;100125.37;1814460;79;21803;-66
2021/12/26 09:45:08;;;;;;;13.78;6.85;;;;;;;-1.69;56.12;100122.19;1815502;79;20925;-66
2021/12/26 09:47:38;;;;;;;5.70;3.30;;;;;;;-1.58;56.03;100113.16;1815768;79;20916;-66
2021/12/26 09:50:07;;;;;;;7.67;3.55;;;;;;;-1.43;55.88;100122.62;1814416;78;21498;-66
2021/12/26 09:52:33;;;;;;;6.70;2.80;;;;;;;-1.34;55.51;100117.97;1808061;79;20952;-66
2021/12/26 09:55:00;;;;;;;6.35;3.02;;;;;;;-1.26;55.08;100113.34;1815502;79;21769;-66
2021/12/26 09:57:28;;;;;;;6.60;3.70;;;;;;;-1.20;55.03;100118.77;1790798;78;21070;-66
2021/12/26 09:59:55;;;;;;;4.55;2.72;;;;;;;-1.11;55.28;100113.71;1783343;80;20956;-67
2021/12/26 10:02:21;;;;;;;5.00;2.83;;;;;;;-0.95;54.91;100107.09;1806854;78;20992;-66
2021/12/26 10:04:49;;;;;;;6.55;2.87;;;;;;;-0.86;54.31;100110.64;1790810;79;21013;-67
2021/12/26 10:07:24;;;;;;;8.73;4.03;;;;;;;-0.79;54.53;100112.53;1777975;79;21796;-66
2021/12/26 10:09:51;;;;;;;12.80;4.45;;;;;;;-0.69;54.32;100109.53;1783609;80;20976;-66
2021/12/26 10:12:21;;;;;;;8.45;4.22;;;;;;;-0.54;54.23;100121.09;1802536;79;20993;-66
2021/12/26 10:14:52;;;;;;;9.35;4.83;;;;;;;-0.47;53.74;100115.23;1794081;80;21032;-66
2021/12/26 10:17:25;;;;;;;7.65;3.75;;;;;;;-0.37;53.31;100110.92;1794553;80;21542;-66
2021/12/26 10:19:51;;;;;;;29.52;14.58;;;;;;;-0.29;51.49;100111.90;1793923;79;21839;-66
2021/12/26 10:22:28;;;;;;;8.08;3.55;;;;;;;-0.32;51.60;100111.58;1787505;79;21004;-66
2021/12/26 10:24:55;;;;;;;5.37;2.55;;;;;;;-0.28;51.59;100105.84;1792998;80;20988;-67
2021/12/26 10:27:29;;;;;;;6.00;3.33;;;;;;;-0.15;50.88;100101.84;1786613;80;21017;-66
2021/12/26 10:30:00;;;;;;;25.27;13.13;;;;;;;-0.12;50.92;100103.00;1742240;81;21431;-67
2021/12/26 10:32:31;;;;;;;13.75;6.20;;;;;;;-0.03;51.44;100101.80;1753388;80;21836;-66
2021/12/26 10:35:06;;;;;;;7.20;3.70;;;;;;;0.16;51.55;100094.09;1739953;81;21057;-66
2021/12/26 10:37:45;;;;;;;10.68;5.47;;;;;;;0.38;50.01;100100.09;1740666;81;21007;-67
2021/12/26 10:40:19;;;;;;;10.98;5.85;;;;;;;0.48;49.91;100100.12;1740547;82;21004;-66
2021/12/26 10:42:53;;;;;;;12.28;6.55;;;;;;;0.54;49.22;100095.09;1776047;80;20948;-66
2021/12/26 10:45:29;;;;;;;7.28;3.72;;;;;;;0.60;49.07;100097.91;1794421;79;21856;-66
2021/12/26 10:48:00;;;;;;;4.22;2.17;;;;;;;0.70;49.30;100099.19;1794106;80;21377;-66
2021/12/26 10:50:30;;;;;;;5.00;2.80;;;;;;;0.71;47.64;100093.92;1788882;79;21028;-66
2021/12/26 10:53:05;;;;;;;5.95;2.42;;;;;;;0.57;48.10;100088.46;1775707;80;21032;-66
2021/12/26 10:55:36;;;;;;;7.08;3.22;;;;;;;0.59;47.41;100094.92;1781096;79;21426;-65
2021/12/26 10:58:10;;;;;;;4.47;2.50;;;;;;;0.49;47.42;100097.06;1773516;79;21531;-66
2021/12/26 11:00:43;;;;;;;8.20;4.60;;;;;;;0.48;48.01;100097.52;1768052;79;21013;-66
2021/12/26 11:03:21;;;;;;;6.62;2.60;;;;;;;0.67;48.89;100094.95;1796287;79;21088;-66
2021/12/26 11:05:52;;;;;;;5.17;2.70;;;;;;;0.82;48.02;100102.55;1797407;79;21114;-66
2021/12/26 11:08:29;;;;;;;5.08;3.20;;;;;;;0.83;47.08;100102.94;1797610;78;21039;-66
2021/12/26 11:10:56;;;;;;;5.60;2.77;;;;;;;0.77;47.04;100110.99;1777988;79;21791;-65
2021/12/26 11:13:29;;;;;;;31.87;18.57;;;;;;;0.72;46.74;100097.36;1765263;80;20988;-66
2021/12/26 11:16:04;;;;;;;9.15;4.60;;;;;;;0.70;47.40;100100.03;1752563;79;20993;-66
2021/12/26 11:18:30;;;;;;;13.10;7.50;;;;;;;0.74;46.91;100097.68;1741319;82;21040;-66
2021/12/26 11:21:00;;;;;;;46.20;23.38;;;;;;;0.85;48.30;100102.41;1750659;81;21087;-67
2021/12/26 11:23:34;;;;;;;48.65;25.95;;;;;;;1.10;48.30;100096.98;1771090;80;21783;-67
2021/12/26 11:26:11;;;;;;;11.45;6.67;;;;;;;1.35;47.99;100104.50;1771426;80;21420;-65
2021/12/26 11:28:41;;;;;;;6.28;3.52;;;;;;;1.53;47.35;100103.65;1771635;81;21048;-68
2021/12/26 11:31:15;;;;;;;6.15;2.80;;;;;;;1.60;46.81;100101.16;1771455;80;21024;-67
2021/12/26 11:33:41;;;;;;;4.95;2.50;;;;;;;1.66;46.24;100098.28;1796414;79;27840;-66
2021/12/26 11:36:10;;;;;;;5.58;2.25;;;;;;;1.63;45.67;100098.86;1802955;79;21826;-66
2021/12/26 11:38:36;;;;;;;12.10;6.25;;;;;;;1.46;45.29;100102.27;1803407;79;20926;-66
2021/12/26 11:41:38;;;;;;;7.33;3.60;;;;;;;1.44;46.83;100104.08;1770945;79;20997;-65
2021/12/26 11:44:52;;;;;;;4.90;2.30;;;;;;;1.68;46.28;100096.90;1766925;79;21072;-66
2021/12/26 11:48:20;;;;;;;4.22;2.58;;;;;;;1.74;44.84;100099.22;1787031;79;20993;-67
2021/12/26 11:51:22;;;;;;;4.87;2.80;;;;;;;1.72;44.80;100104.48;1777508;79;23027;-67
2021/12/26 11:54:50;;;;;;;5.47;2.80;;;;;;;1.66;44.32;100107.84;1746043;80;21028;-66
2021/12/26 11:57:45;;;;;;;5.62;3.10;;;;;;;1.67;43.92;100114.28;1765404;81;21024;-66
2021/12/26 12:00:27;;;;;;;5.22;2.98;;;;;;;1.77;44.34;100106.03;1757402;80;20965;-66
2021/12/26 12:02:58;;;;;;;6.10;2.92;;;;;;;1.65;43.34;100113.52;1766261;80;21012;-67
2021/12/26 12:05:36;;;;;;;5.12;2.72;;;;;;;1.60;43.61;100108.97;1765907;81;21862;-66
2021/12/26 12:08:16;;;;;;;5.62;2.67;;;;;;;1.56;43.84;100115.25;1765024;81;21397;-66
2021/12/26 12:10:56;;;;;;;4.60;2.17;;;;;;;1.50;43.40;100105.56;1769432;81;21412;-66
2021/12/26 12:13:40;;;;;;;6.00;2.87;;;;;;;1.47;44.11;100113.52;1773649;80;20980;-65
2021/12/26 12:16:27;;;;;;;4.37;2.60;;;;;;;1.43;43.43;100108.89;1806140;78;21459;-66
2021/12/26 12:18:57;;;;;;;5.58;2.80;;;;;;;1.41;44.50;100111.58;1801749;79;22013;-66
2021/12/26 12:21:44;;;;;;;5.12;2.60;;;;;;;1.63;43.91;100107.52;1803269;79;20937;-67
2021/12/26 12:24:21;;;;;;;6.78;2.50;;;;;;;1.62;43.76;100110.19;1802616;78;20996;-66
2021/12/26 12:27:00;;;;;;;5.67;3.00;;;;;;;1.69;43.92;100111.60;1802334;79;21004;-64
2021/12/26 12:29:41;;;;;;;8.73;4.80;;;;;;;1.79;43.51;100106.80;1802503;79;20909;-65
2021/12/26 12:32:16;;;;;;;5.05;2.98;;;;;;;1.83;43.83;100101.36;1794958;79;21855;-66
2021/12/26 12:35:14;;;;;;;4.53;2.30;;;;;;;1.94;42.47;100108.69;1814595;78;21004;-66
2021/12/26 12:37:39;;;;;;;5.12;3.15;;;;;;;1.81;42.31;100109.71;1814619;78;21351;-67
2021/12/26 12:40:17;;;;;;;4.58;2.30;;;;;;;1.70;42.68;100111.98;1814645;79;21106;-67
2021/12/26 12:43:06;;;;;;;4.12;2.25;;;;;;;1.67;42.68;100109.08;1810838;79;20954;-66
2021/12/26 12:46:00;;;;;;;4.83;2.35;;;;;;;1.63;43.11;100121.83;1785691;79;20996;-66
2021/12/26 12:48:40;;;;;;;5.80;3.40;;;;;;;1.66;43.43;100122.17;1796747;79;21071;-65
2021/12/26 12:51:22;;;;;;;10.13;4.65;;;;;;;1.68;42.65;100125.08;1807770;77;21074;-66
2021/12/26 12:53:51;;;;;;;7.40;4.58;;;;;;;1.52;43.60;100124.09;1802766;77;21033;-66
2021/12/26 12:56:36;;;;;;;7.20;4.08;;;;;;;1.53;43.97;100127.53;1755866;80;21068;-65
2021/12/26 12:59:20;;;;;;;14.70;7.58;;;;;;;1.61;43.60;100135.37;1807833;79;21826;-67
2021/12/26 13:02:12;;;;;;;17.00;7.93;;;;;;;1.57;42.82;100129.10;1809560;78;21040;-66
2021/12/26 13:04:47;;;;;;;10.90;5.30;;;;;;;1.45;42.76;100130.52;1807753;78;21486;-66
2021/12/26 13:07:21;;;;;;;4.60;2.40;;;;;;;1.35;42.94;100136.59;1802259;79;21024;-66
2021/12/26 13:09:51;;;;;;;4.60;2.58;;;;;;;1.27;42.51;100140.45;1800466;78;21089;-67
2021/12/26 13:12:17;;;;;;;4.92;2.50;;;;;;;1.18;42.39;100147.36;1806771;79;22081;-67
2021/12/26 13:14:54;;;;;;;4.67;2.60;;;;;;;1.06;42.34;100146.13;1810764;77;20901;-65
2021/12/26 13:17:35;;;;;;;5.47;3.08;;;;;;;0.98;42.47;100146.94;1807942;77;21004;-65
2021/12/26 13:20:09;;;;;;;5.90;3.20;;;;;;;0.89;42.67;100145.58;1794745;78;21003;-67
2021/12/26 13:22:56;;;;;;;;;;;;;;;0.88;43.08;100145.20;1803568;78;21012;-65
2021/12/26 13:25:39;;;;;;;7.70;3.85;;;;;;;0.87;43.22;100152.61;1809230;79;21834;-66
2021/12/26 13:28:17;;;;;;;8.30;4.42;;;;;;;0.85;43.49;100153.11;1814454;79;21414;-65
2021/12/26 13:30:48;;;;;;;8.25;4.08;;;;;;;0.77;43.38;100152.59;1809084;79;21415;-65
2021/12/26 13:33:21;;;;;;;9.70;5.37;;;;;;;0.58;43.54;100155.14;1808905;77;21012;-66
2021/12/26 13:35:48;;;;;;;11.45;5.97;;;;;;;0.38;44.08;100158.54;1809212;78;21490;-65
2021/12/26 13:38:15;;;;;;;13.38;7.20;;;;;;;0.20;44.43;100163.21;1797697;79;21773;-66
2021/12/26 13:40:44;;;;;;;13.05;6.28;;;;;;;0.06;45.00;100166.80;1808549;79;21031;-66
2021/12/26 13:43:11;;;;;;;14.40;7.60;;;;;;;-0.06;45.31;100168.12;1804401;79;21049;-66
2021/12/26 13:45:43;;;;;;;15.83;7.58;;;;;;;-0.24;45.45;100165.78;1803022;79;21048;-66
2021/12/26 13:48:12;;;;;;;24.07;10.63;;;;;;;-0.40;45.72;100172.45;1796156;79;21051;-66
2021/12/26 13:50:38;;;;;;;24.65;10.88;;;;;;;-0.55;45.72;100169.99;1803095;78;21770;-65
2021/12/26 13:53:09;;;;;;;18.57;9.00;;;;;;;-0.70;46.06;100171.39;1803949;78;21497;-66
2021/12/26 13:55:38;;;;;;;14.10;7.12;;;;;;;-0.82;46.39;100178.33;1810153;79;22087;-66
2021/12/26 13:58:12;;;;;;;12.45;6.00;;;;;;;-0.97;46.84;100180.15;1811584;79;21035;-65
2021/12/26 14:00:51;;;;;;;12.33;5.92;;;;;;;-1.11;47.30;100179.34;1809899;79;21456;-67
2021/12/26 14:03:19;;;;;;;12.78;6.10;;;;;;;-1.25;47.83;100177.70;1809913;78;21807;-67
2021/12/26 14:05:46;;;;;;;13.70;6.87;;;;;;;-1.36;48.41;100181.07;1795558;78;39022;-66
2021/12/26 14:08:22;;;;;;;12.35;6.35;;;;;;;-1.49;48.73;100181.48;1809054;78;21441;-67
2021/12/26 14:11:03;;;;;;;11.50;5.55;;;;;;;-1.59;49.12;100193.05;1796543;79;21032;-66
2021/12/26 14:13:31;;;;;;;12.10;5.70;;;;;;;-1.62;49.46;100200.08;1815432;77;21059;-68
2021/12/26 14:16:00;;;;;;;9.88;4.90;;;;;;;-1.68;49.71;100193.80;1783152;79;22441;-66
2021/12/26 14:18:31;;;;;;;11.33;5.10;;;;;;;-1.76;49.93;100197.91;1782707;79;21005;-66
2021/12/26 14:21:05;;;;;;;12.05;6.10;;;;;;;-1.83;50.16;100201.62;1785690;78;21091;-66
2021/12/26 14:23:41;;;;;;;12.63;7.17;;;;;;;-1.88;50.35;100208.22;1751054;80;21040;-68
2021/12/26 14:26:22;;;;;;;19.15;9.83;;;;;;;-1.94;50.53;100208.84;1710512;83;21095;-67
2021/12/26 14:29:00;;;;;;;16.80;7.37;;;;;;;-1.99;50.75;100211.59;1712393;82;21859;-68
2021/12/26 14:31:38;;;;;;;9.65;5.35;;;;;;;-2.06;50.93;100212.66;1727365;81;21072;-66
2021/12/26 14:34:17;;;;;;;11.97;6.78;;;;;;;-2.12;51.12;100218.88;1778662;79;21024;-68
2021/12/26 14:36:56;;;;;;;12.53;6.00;;;;;;;-2.20;51.33;100214.83;1772835;79;21038;-67
2021/12/26 14:39:40;;;;;;;12.50;6.53;;;;;;;-2.25;51.46;100217.98;1749647;80;20983;-67
2021/12/26 14:42:15;;;;;;;12.35;6.00;;;;;;;-2.32;51.64;100216.01;1723168;81;21384;-71
2021/12/26 14:44:47;;;;;;;12.75;7.72;;;;;;;-2.40;51.87;100218.84;1713162;82;21555;-67
2021/12/26 14:47:38;;;;;;;14.30;7.97;;;;;;;-2.46;52.00;100225.92;1722592;82;21476;-66
2021/12/26 14:50:12;;;;;;;20.85;12.80;;;;;;;-2.52;52.19;100220.47;1715041;81;21301;-65
2021/12/26 14:52:50;;;;;;;22.13;13.93;;;;;;;-2.61;52.32;100233.23;1721183;82;21035;-69
2021/12/26 14:55:23;;;;;;;24.90;14.75;;;;;;;-2.62;52.54;100228.08;1704058;82;21845;-68
2021/12/26 14:57:50;;;;;;;18.02;11.28;;;;;;;-2.65;52.63;100224.30;1781991;79;21027;-69
2021/12/26 15:00:22;;;;;;;20.02;9.00;;;;;;;-2.68;52.79;100222.66;1774562;79;21056;-68
2021/12/26 15:02:53;;;;;;;16.40;8.10;;;;;;;-2.74;52.99;100221.52;1785358;79;21625;-68
2021/12/26 15:05:35;;;;;;;19.32;10.05;;;;;;;-2.80;53.17;100226.00;1793911;79;21043;-68
2021/12/26 15:08:10;;;;;;;26.17;13.32;;;;;;;-2.85;53.39;100224.00;1792547;78;21812;-68
2021/12/26 15:10:45;;;;;;;31.90;17.40;;;;;;;-2.90;53.66;100226.24;1757658;79;21020;-68
2021/12/26 15:13:15;;;;;;;28.35;15.05;;;;;;;-2.97;53.87;100225.17;1744116;78;21035;-66
2021/12/26 15:15:55;;;;;;;25.17;11.75;;;;;;;-3.02;54.09;100226.58;1794665;79;21522;-68
2021/12/26 15:18:26;;;;;;;23.07;12.43;;;;;;;-3.05;54.24;100234.41;1799692;79;20988;-68
2021/12/26 15:20:56;;;;;;;22.98;12.63;;;;;;;-3.10;54.36;100236.26;1753247;81;21820;-67
2021/12/26 15:23:33;;;;;;;21.70;12.63;;;;;;;-3.13;54.55;100240.66;1717371;81;21460;-68
2021/12/26 15:26:14;;;;;;;27.40;14.23;;;;;;;-3.17;54.64;100241.20;1732469;81;21028;-68
2021/12/26 15:28:44;;;;;;;26.20;13.43;;;;;;;-3.22;54.76;100234.00;1794382;79;22209;-68
2021/12/26 15:31:20;;;;;;;23.42;12.53;;;;;;;-3.26;54.89;100238.84;1797230;79;21075;-67
2021/12/26 15:33:53;;;;;;;22.85;11.95;;;;;;;-3.29;54.94;100232.44;1790654;79;21833;-69
2021/12/26 15:36:27;;;;;;;20.52;11.73;;;;;;;-3.32;54.99;100235.11;1777199;79;21062;-69
2021/12/26 15:38:57;;;;;;;21.45;11.60;;;;;;;-3.34;55.00;100239.47;1753695;80;21005;-68
2021/12/26 15:41:29;;;;;;;18.98;9.95;;;;;;;-3.38;55.04;100238.68;1719380;82;21093;-67
2021/12/26 15:43:58;;;;;;;22.70;11.38;;;;;;;-3.41;55.10;100234.05;1710854;82;21081;-68
2021/12/26 15:46:27;;;;;;;27.75;16.85;;;;;;;-3.44;55.24;100235.42;1729736;82;21814;-68
2021/12/26 15:48:53;;;;;;;49.42;26.07;;;;;;;-3.46;55.34;100233.73;1723010;83;21121;-68
2021/12/26 15:51:22;;;;;;;49.35;30.57;;;;;;;-3.51;55.41;100235.56;1728882;83;21049;-66
2021/12/26 15:53:49;;;;;;;39.27;22.95;;;;;;;-3.53;55.43;100241.66;1728365;80;21049;-66
2021/12/26 15:56:15;;;;;;;31.95;18.57;;;;;;;-3.56;55.45;100236.13;1712478;80;21089;-68
2021/12/26 15:58:42;;;;;;;29.60;17.10;;;;;;;-3.56;55.47;100239.16;1725882;80;21782;-66
2021/12/26 16:01:08;;;;;;;33.48;19.73;;;;;;;-3.57;55.47;100247.34;1726548;80;21497;-68
2021/12/26 16:03:35;;;;;;;31.37;17.70;;;;;;;-3.59;55.49;100240.50;1728718;82;21044;-67
2021/12/26 16:06:03;;;;;;;30.90;17.32;;;;;;;-3.61;55.57;100252.59;1724427;81;21045;-67
2021/12/26 16:08:31;;;;;;;30.23;16.62;;;;;;;-3.65;55.63;100251.83;1747909;80;21366;-68
2021/12/26 16:10:58;;;;;;;26.27;18.15;;;;;;;-3.67;55.69;100252.73;1724933;82;21849;-66
2021/12/26 16:13:26;;;;;;;28.07;17.62;;;;;;;-3.69;55.77;100256.64;1725022;81;21032;-67
2021/12/26 16:15:53;;;;;;;24.90;13.50;;;;;;;-3.70;55.81;100259.27;1741403;82;21028;-68
2021/12/26 16:18:20;;;;;;;27.67;16.77;;;;;;;-3.72;55.89;100255.43;1722665;82;21039;-67
2021/12/26 16:20:52;;;;;;;28.02;14.85;;;;;;;-3.74;55.96;100258.50;1737972;80;21276;-66
2021/12/26 16:23:18;;;;;;;30.40;18.62;;;;;;;-3.75;56.00;100259.38;1733280;82;21571;-67
2021/12/26 16:25:45;;;;;;;33.48;18.42;;;;;;;-3.77;56.02;100265.00;1734274;82;21099;-66
2021/12/26 16:28:12;;;;;;;43.38;26.40;;;;;;;-3.80;56.10;100265.08;1733410;82;21107;-67
2021/12/26 16:30:39;;;;;;;38.00;23.30;;;;;;;-3.82;56.12;100268.14;1716157;82;21048;-66
2021/12/26 16:33:09;;;;;;;67.10;42.05;;;;;;;-3.81;56.17;100267.25;1735805;82;21096;-67
2021/12/26 16:35:40;;;;;;;55.23;35.28;;;;;;;-3.86;56.22;100263.91;1730648;81;22509;-66
2021/12/26 16:38:08;;;;;;;26.27;15.75;;;;;;;-3.89;56.36;100261.41;1738996;82;21028;-65
2021/12/26 16:40:35;;;;;;;26.45;15.43;;;;;;;-3.91;56.41;100271.77;1723588;81;21040;-65
2021/12/26 16:43:03;;;;;;;22.90;14.50;;;;;;;-3.93;56.54;100272.69;1740577;82;21055;-66
2021/12/26 16:45:30;;;;;;;18.17;9.15;;;;;;;-3.93;56.57;100273.98;1742186;82;22247;-67
2021/12/26 16:47:57;;;;;;;31.10;16.25;;;;;;;-3.94;56.59;100273.58;1740912;81;22636;-65
2021/12/26 16:50:25;;;;;;;25.35;13.88;;;;;;;-3.93;56.57;100275.27;1735573;80;21061;-66
2021/12/26 16:52:52;;;;;;;31.70;19.35;;;;;;;-3.93;56.64;100281.72;1740073;82;21087;-67
2021/12/26 16:55:24;;;;;;;30.02;16.82;;;;;;;-3.94;56.64;100286.48;1728793;81;21012;-66
2021/12/26 16:57:47;;;;;;;26.17;16.17;;;;;;;-3.93;56.65;100289.02;1742005;81;21518;-67
2021/12/26 17:00:15;;;;;;;19.52;9.73;;;;;;;-3.93;56.71;100290.75;1741162;80;22688;-67
2021/12/26 17:02:41;;;;;;;18.20;10.30;;;;;;;-3.94;56.77;100296.36;1740175;80;21419;-66
2021/12/26 17:05:09;;;;;;;24.30;12.78;;;;;;;-3.94;56.78;100289.06;1772931;80;21071;-66
2021/12/26 17:07:41;;;;;;;19.37;9.38;;;;;;;-3.98;56.88;100293.41;1790082;79;21487;-66
2021/12/26 17:10:08;;;;;;;22.17;12.40;;;;;;;-4.00;56.94;100295.63;1800750;78;21017;-67
2021/12/26 17:12:36;;;;;;;18.90;10.05;;;;;;;-4.02;56.97;100298.69;1804744;78;21067;-67
2021/12/26 17:15:04;;;;;;;20.65;10.98;;;;;;;-4.04;57.06;100305.17;1799726;79;20943;-67
2021/12/26 17:17:30;;;;;;;24.27;13.28;;;;;;;-4.08;57.13;100300.94;1809611;78;20996;-66
2021/12/26 17:19:58;;;;;;;22.82;11.45;;;;;;;-4.10;57.20;100302.27;1802170;79;21508;-66
2021/12/26 17:22:26;;;;;;;27.00;12.88;;;;;;;-4.12;57.25;100302.75;1804932;78;21005;-67
2021/12/26 17:24:52;;;;;;;23.07;11.68;;;;;;;-4.15;57.35;100306.69;1798585;79;22516;-67
2021/12/26 17:27:23;;;;;;;147.93;64.87;;;;;;;-4.18;57.45;100301.56;1808129;77;20969;-67
2021/12/26 17:29:52;;;;;;;44.75;21.02;;;;;;;-4.20;57.56;100313.65;1809609;77;20988;-69
2021/12/26 17:32:21;;;;;;;37.85;22.05;;;;;;;-4.21;57.65;100313.25;1800346;77;21000;-68
2021/12/26 17:34:47;;;;;;;36.48;20.65;;;;;;;-4.23;57.74;100316.74;1802057;79;20980;-67
2021/12/26 17:37:14;;;;;;;35.68;18.70;;;;;;;-4.24;57.86;100321.05;1805806;79;24101;-68
2021/12/26 17:39:41;;;;;;;35.95;20.37;;;;;;;-4.24;57.91;100324.08;1804064;78;21010;-66
2021/12/26 17:42:09;;;;;;;42.05;23.47;;;;;;;-4.26;57.98;100325.36;1806988;78;21062;-67
2021/12/26 17:44:35;;;;;;;35.65;19.73;;;;;;;-4.30;58.04;100329.34;1808223;79;21015;-65
2021/12/26 17:47:02;;;;;;;33.23;18.00;;;;;;;-4.32;58.13;100330.66;1808963;79;21514;-68
2021/12/26 17:49:29;;;;;;;40.90;24.85;;;;;;;-4.35;58.19;100335.41;1774734;79;21823;-68
2021/12/26 17:51:55;;;;;;;42.65;24.07;;;;;;;-4.36;58.29;100330.30;1808970;78;21024;-66
2021/12/26 17:54:22;;;;;;;42.98;24.57;;;;;;;-4.38;58.32;100341.08;1803794;79;21050;-68
2021/12/26 17:56:50;;;;;;;31.33;17.50;;;;;;;-4.39;58.34;100338.95;1810776;78;21000;-67
2021/12/26 17:59:17;;;;;;;32.93;18.32;;;;;;;-4.40;58.43;100341.55;1809955;78;21008;-68
2021/12/26 18:01:43;;;;;;;39.65;24.65;;;;;;;-4.42;58.46;100347.19;1811399;77;21795;-67
2021/12/26 18:04:10;;;;;;;44.60;27.40;;;;;;;-4.46;58.51;100340.38;1804900;78;21051;-67
2021/12/26 18:06:38;;;;;;;38.75;21.97;;;;;;;-4.48;58.56;100344.27;1792245;79;21059;-67
2021/12/26 18:09:06;;;;;;;45.30;27.15;;;;;;;-4.50;58.62;100341.31;1801853;79;21034;-66